This is the latest recevied weather packets stored in our database for station/object SP9INZ-13. If no packets are shown the sender has not sent any weather packets the latest 10 day(s).
| Time | Temp. | Humidity | Pressure | Rain* | Wind** | Luminosity | Snow |
|---|---|---|---|---|---|---|---|
| 1777903439 | 26.11° C | 29% | 1015 hPa | - | - | - | - |
| 1777902482 | 27.22° C | 28% | 1014.4 hPa | - | - | - | - |
| 1777901523 | 27.22° C | 27% | 1014.5 hPa | - | - | - | - |
| 1777900566 | 27.78° C | 27% | 1014.6 hPa | - | - | - | - |
| 1777899608 | 27.78° C | 26% | 1014.6 hPa | - | - | - | - |
| 1777898649 | 27.22° C | 27% | 1015 hPa | - | - | - | - |
| 1777897692 | 27.78° C | 26% | 1014.9 hPa | - | - | - | - |
| 1777896734 | 27.78° C | 26% | 1015.1 hPa | - | - | - | - |
| 1777895776 | 28.33° C | 26% | 1014.8 hPa | - | - | - | - |
| 1777894817 | 27.78° C | 26% | 1015.1 hPa | - | - | - | - |
| 1777893859 | 23.89° C | 30% | 1017.1 hPa | - | - | - | - |
| 1777892902 | 25° C | 28% | 1016.5 hPa | - | - | - | - |
| 1777891945 | 24.44° C | 30% | 1016.9 hPa | - | - | - | - |
| 1777890985 | 23.33° C | 30% | 1017.6 hPa | - | - | - | - |
| 1777890028 | 24.44° C | 30% | 1017.4 hPa | - | - | - | - |
| 1777889069 | 23.33° C | 31% | 1018.2 hPa | - | - | - | - |
| 1777888111 | 22.78° C | 31% | 1018.5 hPa | - | - | - | - |
| 1777887153 | 22.22° C | 31% | 1018.8 hPa | - | - | - | - |
| 1777886196 | 22.78° C | 31% | 1018.8 hPa | - | - | - | - |
| 1777885237 | 22.78° C | 32% | 1018.4 hPa | - | - | - | - |
| 1777884279 | 22.22° C | 32% | 1018.9 hPa | - | - | - | - |
| 1777883321 | 21.67° C | 34% | 1019 hPa | - | - | - | - |
| 1777882363 | 21.11° C | 35% | 1019.1 hPa | - | - | - | - |
| 1777881412 | 20.56° C | 36% | 1019.2 hPa | - | - | - | - |
| 1777881405 | 20.56° C | 36% | 1019.2 hPa | - | - | - | - |
* Rain since midnight (hover to see other rain measurements)
** Current wind speed in m/s (hover to see current wind gust speed)